Anthony, Idaho
Current Conditions -  °F | °C
As of 10:15 PM on Saturday 25 Oct 2014 (Local Time) from KWYS Reporting Station
Broken Clouds Broken Clouds  
Wind Chill: 48°   Ceiling: 10000
Heat Index: 48°   Visibility: 10mi
Dew Point: 30°   Wind: 3mph
Humidity: 50%   Direction: 260°W
Pressure: 29.88"   Gusts: NA
Location:  44.2887°N, 111.507°W
Report Text: KWYS 260415Z AUTO 26003KT 10SM BKN100 09/M01 A2988 RMK AO2
Loading
Personal Weather Stations






























Interactive Weather Map
Tropical Storm Tracking
New forecast layout! Learn more

10-Day Weather Forecast

Advertisements
Track Severe Weather on mobile